sensor_id;sensor_type;location;lat;lon;timestamp;pressure;altitude;pressure_sealevel;temperature;humidity
9139;BME280;4604;48.616;9.548;2022-12-01T00:01:05;97384.41;;;3.52;100.00
9139;BME280;4604;48.616;9.548;2022-12-01T00:03:33;97389.34;;;3.41;100.00
9139;BME280;4604;48.616;9.548;2022-12-01T00:06:00;97388.28;;;3.45;100.00
9139;BME280;4604;48.616;9.548;2022-12-01T00:08:29;97387.25;;;3.48;100.00
9139;BME280;4604;48.616;9.548;2022-12-01T00:11:02;97356.03;;;3.30;100.00
9139;BME280;4604;48.616;9.548;2022-12-01T00:13:28;97379.84;;;3.56;100.00
9139;BME280;4604;48.616;9.548;2022-12-01T00:15:55;97384.91;;;3.59;100.00
9139;BME280;4604;48.616;9.548;2022-12-01T00:18:21;97376.41;;;3.55;100.00
9139;BME280;4604;48.616;9.548;2022-12-01T00:20:50;97383.97;;;3.60;100.00
9139;BME280;4604;48.616;9.548;2022-12-01T00:23:20;97390.22;;;3.57;100.00
9139;BME280;4604;48.616;9.548;2022-12-01T00:26:01;97387.94;;;3.51;100.00
9139;BME280;4604;48.616;9.548;2022-12-01T00:28:28;97387.00;;;3.52;100.00
9139;BME280;4604;48.616;9.548;2022-12-01T00:30:55;97382.63;;;3.53;100.00
9139;BME280;4604;48.616;9.548;2022-12-01T00:33:21;97383.31;;;3.56;100.00
9139;BME280;4604;48.616;9.548;2022-12-01T00:35:57;97387.34;;;3.62;100.00
9139;BME280;4604;48.616;9.548;2022-12-01T00:38:23;97385.75;;;3.59;100.00
9139;BME280;4604;48.616;9.548;2022-12-01T00:40:51;97398.03;;;3.57;100.00
9139;BME280;4604;48.616;9.548;2022-12-01T00:43:19;97393.34;;;3.64;100.00
9139;BME280;4604;48.616;9.548;2022-12-01T00:45:46;97396.78;;;3.64;100.00
9139;BME280;4604;48.616;9.548;2022-12-01T00:48:13;97385.69;;;3.61;100.00
9139;BME280;4604;48.616;9.548;2022-12-01T00:50:40;97377.75;;;3.47;100.00
9139;BME280;4604;48.616;9.548;2022-12-01T00:53:07;97398.03;;;3.57;100.00
9139;BME280;4604;48.616;9.548;2022-12-01T00:55:34;97395.75;;;3.67;99.84
9139;BME280;4604;48.616;9.548;2022-12-01T00:58:00;97397.63;;;3.65;98.84
9139;BME280;4604;48.616;9.548;2022-12-01T01:00:29;97394.16;;;3.64;100.00
9139;BME280;4604;48.616;9.548;2022-12-01T01:02:56;97368.66;;;3.38;100.00
9139;BME280;4604;48.616;9.548;2022-12-01T01:05:22;97391.22;;;3.55;100.00
9139;BME280;4604;48.616;9.548;2022-12-01T01:07:52;97392.22;;;3.52;100.00
9139;BME280;4604;48.616;9.548;2022-12-01T01:10:18;97366.13;;;3.36;100.00
9139;BME280;4604;48.616;9.548;2022-12-01T01:12:45;97385.66;;;3.45;100.00
9139;BME280;4604;48.616;9.548;2022-12-01T01:15:12;97387.09;;;3.51;100.00
9139;BME280;4604;48.616;9.548;2022-12-01T01:17:40;97389.88;;;3.48;100.00
9139;BME280;4604;48.616;9.548;2022-12-01T01:20:08;97379.59;;;3.45;100.00
9139;BME280;4604;48.616;9.548;2022-12-01T01:22:35;97382.13;;;3.46;100.00
9139;BME280;4604;48.616;9.548;2022-12-01T01:25:01;97383.06;;;3.45;100.00
9139;BME280;4604;48.616;9.548;2022-12-01T01:27:28;97370.25;;;3.40;100.00
9139;BME280;4604;48.616;9.548;2022-12-01T01:29:55;97377.75;;;3.47;100.00
9139;BME280;4604;48.616;9.548;2022-12-01T01:32:21;97387.94;;;3.51;99.89
9139;BME280;4604;48.616;9.548;2022-12-01T01:34:49;97370.44;;;3.37;100.00
9139;BME280;4604;48.616;9.548;2022-12-01T01:37:16;97383.88;;;3.46;100.00
9139;BME280;4604;48.616;9.548;2022-12-01T01:39:43;97385.00;;;3.41;100.00
9139;BME280;4604;48.616;9.548;2022-12-01T01:42:12;97379.03;;;3.39;100.00
9139;BME280;4604;48.616;9.548;2022-12-01T01:44:50;97377.50;;;3.35;100.00
9139;BME280;4604;48.616;9.548;2022-12-01T01:47:20;97388.69;;;3.37;100.00
9139;BME280;4604;48.616;9.548;2022-12-01T01:49:50;97384.72;;;3.46;100.00
9139;BME280;4604;48.616;9.548;2022-12-01T01:52:17;97379.84;;;3.40;100.00
9139;BME280;4604;48.616;9.548;2022-12-01T01:54:46;97379.75;;;3.26;100.00
9139;BME280;4604;48.616;9.548;2022-12-01T01:57:21;97388.69;;;3.37;100.00
9139;BME280;4604;48.616;9.548;2022-12-01T01:59:53;97315.88;;;3.17;100.00
9139;BME280;4604;48.616;9.548;2022-12-01T02:02:20;97367.41;;;3.29;100.00
9139;BME280;4604;48.616;9.548;2022-12-01T02:04:54;97380.03;;;3.53;100.00
9139;BME280;4604;48.616;9.548;2022-12-01T02:07:22;97387.84;;;3.53;100.00
9139;BME280;4604;48.616;9.548;2022-12-01T02:09:55;97398.19;;;3.38;100.00
9139;BME280;4604;48.616;9.548;2022-12-01T02:12:38;97396.88;;;3.47;100.00
9139;BME280;4604;48.616;9.548;2022-12-01T02:15:16;97388.28;;;3.45;100.00
9139;BME280;4604;48.616;9.548;2022-12-01T02:17:54;97383.19;;;3.26;100.00
9139;BME280;4604;48.616;9.548;2022-12-01T02:20:53;97386.50;;;3.30;100.00
9139;BME280;4604;48.616;9.548;2022-12-01T02:23:56;97374.44;;;3.11;100.00
9139;BME280;4604;48.616;9.548;2022-12-01T02:26:49;97382.84;;;3.00;100.00
9139;BME280;4604;48.616;9.548;2022-12-01T02:29:36;97366.38;;;3.16;100.00
9139;BME280;4604;48.616;9.548;2022-12-01T02:32:12;97380.00;;;3.05;100.00
9139;BME280;4604;48.616;9.548;2022-12-01T02:34:45;97336.47;;;2.90;100.00
9139;BME280;4604;48.616;9.548;2022-12-01T02:37:23;97378.47;;;3.17;100.00
9139;BME280;4604;48.616;9.548;2022-12-01T02:39:56;97382.91;;;2.99;100.00
9139;BME280;4604;48.616;9.548;2022-12-01T02:42:32;97377.63;;;3.00;100.00
9139;BME280;4604;48.616;9.548;2022-12-01T02:45:20;97379.28;;;2.86;100.00
9139;BME280;4604;48.616;9.548;2022-12-01T02:47:53;97376.44;;;2.73;100.00
9139;BME280;4604;48.616;9.548;2022-12-01T02:50:22;97385.94;;;2.91;100.00
9139;BME280;4604;48.616;9.548;2022-12-01T02:52:52;97381.66;;;2.90;100.00
9139;BME280;4604;48.616;9.548;2022-12-01T02:55:19;97367.38;;;2.80;100.00
9139;BME280;4604;48.616;9.548;2022-12-01T02:57:46;97377.31;;;2.73;100.00
9139;BME280;4604;48.616;9.548;2022-12-01T03:00:14;97376.22;;;2.77;100.00
9139;BME280;4604;48.616;9.548;2022-12-01T03:02:49;97379.59;;;2.79;100.00
9139;BME280;4604;48.616;9.548;2022-12-01T03:05:25;97355.78;;;2.70;100.00
9139;BME280;4604;48.616;9.548;2022-12-01T03:07:59;97376.69;;;2.86;100.00
9139;BME280;4604;48.616;9.548;2022-12-01T03:10:36;97379.31;;;3.02;100.00
9139;BME280;4604;48.616;9.548;2022-12-01T03:13:18;97368.81;;;3.03;100.00
9139;BME280;4604;48.616;9.548;2022-12-01T03:15:54;97373.72;;;2.92;100.00
9139;BME280;4604;48.616;9.548;2022-12-01T03:18:31;97370.09;;;2.78;100.00
9139;BME280;4604;48.616;9.548;2022-12-01T03:21:05;97375.53;;;2.74;100.00
9139;BME280;4604;48.616;9.548;2022-12-01T03:23:38;97375.44;;;2.93;100.00
9139;BME280;4604;48.616;9.548;2022-12-01T03:26:08;97374.63;;;2.75;100.00
9139;BME280;4604;48.616;9.548;2022-12-01T03:28:40;97366.66;;;2.61;100.00
9139;BME280;4604;48.616;9.548;2022-12-01T03:31:12;97362.41;;;2.42;100.00
9139;BME280;4604;48.616;9.548;2022-12-01T03:33:46;97369.66;;;2.53;100.00
9139;BME280;4604;48.616;9.548;2022-12-01T03:36:19;97362.22;;;2.63;100.00
9139;BME280;4604;48.616;9.548;2022-12-01T03:38:53;97364.53;;;2.69;100.00
9139;BME280;4604;48.616;9.548;2022-12-01T03:41:32;97382.38;;;2.92;100.00
9139;BME280;4604;48.616;9.548;2022-12-01T03:44:05;97371.78;;;2.79;100.00
9139;BME280;4604;48.616;9.548;2022-12-01T03:46:40;97377.84;;;2.63;100.00
9139;BME280;4604;48.616;9.548;2022-12-01T03:49:09;97377.31;;;2.73;100.00
9139;BME280;4604;48.616;9.548;2022-12-01T03:51:42;97359.06;;;2.73;100.00
9139;BME280;4604;48.616;9.548;2022-12-01T03:54:18;97364.13;;;2.76;100.00
9139;BME280;4604;48.616;9.548;2022-12-01T03:56:49;97364.19;;;2.75;100.00
9139;BME280;4604;48.616;9.548;2022-12-01T03:59:19;97349.06;;;2.48;100.00
9139;BME280;4604;48.616;9.548;2022-12-01T04:01:47;97381.63;;;2.57;100.00
9139;BME280;4604;48.616;9.548;2022-12-01T04:04:14;97376.34;;;2.59;100.00
9139;BME280;4604;48.616;9.548;2022-12-01T04:06:45;97374.72;;;2.56;100.00
9139;BME280;4604;48.616;9.548;2022-12-01T04:09:12;97368.66;;;2.55;100.00
9139;BME280;4604;48.616;9.548;2022-12-01T04:11:39;97378.63;;;2.65;100.00
9139;BME280;4604;48.616;9.548;2022-12-01T04:14:38;97379.63;;;2.62;100.00
9139;BME280;4604;48.616;9.548;2022-12-01T04:17:05;97334.28;;;2.31;100.00
9139;BME280;4604;48.616;9.548;2022-12-01T04:19:31;97372.41;;;2.67;100.00
9139;BME280;4604;48.616;9.548;2022-12-01T04:22:00;97365.81;;;2.60;100.00
9139;BME280;4604;48.616;9.548;2022-12-01T04:24:26;97370.00;;;2.47;100.00
9139;BME280;4604;48.616;9.548;2022-12-01T04:26:53;97370.91;;;2.46;100.00
9139;BME280;4604;48.616;9.548;2022-12-01T04:29:20;97366.91;;;2.39;100.00
9139;BME280;4604;48.616;9.548;2022-12-01T04:31:47;97367.53;;;2.44;100.00
9139;BME280;4604;48.616;9.548;2022-12-01T04:34:14;97371.72;;;2.46;100.00
9139;BME280;4604;48.616;9.548;2022-12-01T04:36:41;97369.13;;;2.46;100.00
9139;BME280;4604;48.616;9.548;2022-12-01T04:39:09;97366.28;;;2.51;100.00
9139;BME280;4604;48.616;9.548;2022-12-01T04:41:35;97361.63;;;2.57;100.00
9139;BME280;4604;48.616;9.548;2022-12-01T04:44:02;97328.56;;;2.42;100.00
9139;BME280;4604;48.616;9.548;2022-12-01T04:46:29;97370.25;;;2.75;100.00
9139;BME280;4604;48.616;9.548;2022-12-01T04:48:55;97371.53;;;2.84;100.00
9139;BME280;4604;48.616;9.548;2022-12-01T04:51:22;97369.03;;;2.65;100.00
9139;BME280;4604;48.616;9.548;2022-12-01T04:53:49;97361.88;;;2.86;100.00
9139;BME280;4604;48.616;9.548;2022-12-01T04:56:18;97370.72;;;2.99;100.00
9139;BME280;4604;48.616;9.548;2022-12-01T04:58:44;97375.25;;;2.96;100.00
9139;BME280;4604;48.616;9.548;2022-12-01T05:01:12;97378.38;;;2.69;100.00
9139;BME280;4604;48.616;9.548;2022-12-01T05:03:41;97369.34;;;2.76;100.00
9139;BME280;4604;48.616;9.548;2022-12-01T05:06:10;97348.97;;;2.67;100.00
9139;BME280;4604;48.616;9.548;2022-12-01T05:08:37;97376.22;;;2.77;100.00
9139;BME280;4604;48.616;9.548;2022-12-01T05:11:05;97332.19;;;2.55;100.00
9139;BME280;4604;48.616;9.548;2022-12-01T05:13:35;97383.81;;;2.82;100.00
9139;BME280;4604;48.616;9.548;2022-12-01T05:16:05;97386.13;;;2.71;100.00
9139;BME280;4604;48.616;9.548;2022-12-01T05:18:32;97376.78;;;2.67;100.00
9139;BME280;4604;48.616;9.548;2022-12-01T05:20:59;97385.91;;;2.58;100.00
9139;BME280;4604;48.616;9.548;2022-12-01T05:23:27;97394.66;;;2.57;100.00
9139;BME280;4604;48.616;9.548;2022-12-01T05:25:55;97399.06;;;2.72;100.00
9139;BME280;4604;48.616;9.548;2022-12-01T05:28:24;97385.13;;;2.73;100.00
9139;BME280;4604;48.616;9.548;2022-12-01T05:30:54;97378.81;;;2.44;100.00
9139;BME280;4604;48.616;9.548;2022-12-01T05:33:22;97391.50;;;2.50;100.00
9139;BME280;4604;48.616;9.548;2022-12-01T05:35:50;97389.97;;;2.46;100.00
9139;BME280;4604;48.616;9.548;2022-12-01T05:38:17;97382.47;;;2.40;100.00
9139;BME280;4604;48.616;9.548;2022-12-01T05:40:48;97389.75;;;2.51;100.00
9139;BME280;4604;48.616;9.548;2022-12-01T05:43:16;97384.47;;;2.52;100.00
9139;BME280;4604;48.616;9.548;2022-12-01T05:45:43;97396.28;;;2.42;100.00
9139;BME280;4604;48.616;9.548;2022-12-01T05:48:11;97389.44;;;2.57;100.00
9139;BME280;4604;48.616;9.548;2022-12-01T05:50:38;97388.47;;;2.42;100.00
9139;BME280;4604;48.616;9.548;2022-12-01T05:53:06;97390.47;;;2.37;100.00
9139;BME280;4604;48.616;9.548;2022-12-01T05:55:33;97381.09;;;2.50;100.00
9139;BME280;4604;48.616;9.548;2022-12-01T05:58:00;97393.41;;;2.64;100.00
9139;BME280;4604;48.616;9.548;2022-12-01T06:00:27;97395.31;;;2.61;100.00
9139;BME280;4604;48.616;9.548;2022-12-01T06:02:56;97386.88;;;2.73;100.00
9139;BME280;4604;48.616;9.548;2022-12-01T06:05:24;97394.25;;;2.65;100.00
9139;BME280;4604;48.616;9.548;2022-12-01T06:07:51;97397.03;;;2.62;100.00
9139;BME280;4604;48.616;9.548;2022-12-01T06:10:18;97395.19;;;2.64;100.00
9139;BME280;4604;48.616;9.548;2022-12-01T06:12:44;97391.44;;;2.52;100.00
9139;BME280;4604;48.616;9.548;2022-12-01T06:15:11;97396.28;;;2.42;100.00
9139;BME280;4604;48.616;9.548;2022-12-01T06:17:38;97394.72;;;2.55;100.00
9139;BME280;4604;48.616;9.548;2022-12-01T06:20:07;97388.47;;;2.42;100.00
9139;BME280;4604;48.616;9.548;2022-12-01T06:22:35;97388.91;;;2.33;100.00
9139;BME280;4604;48.616;9.548;2022-12-01T06:25:03;97373.34;;;2.31;100.00
9139;BME280;4604;48.616;9.548;2022-12-01T06:27:30;97396.81;;;2.49;100.00
9139;BME280;4604;48.616;9.548;2022-12-01T06:29:56;97400.94;;;2.53;100.00
9139;BME280;4604;48.616;9.548;2022-12-01T06:32:23;97392.44;;;2.49;100.00
9139;BME280;4604;48.616;9.548;2022-12-01T06:34:50;97403.06;;;2.62;100.00
9139;BME280;4604;48.616;9.548;2022-12-01T06:37:17;97404.38;;;2.71;100.00
9139;BME280;4604;48.616;9.548;2022-12-01T06:39:45;97401.59;;;2.74;100.00
9139;BME280;4604;48.616;9.548;2022-12-01T06:42:12;97395.63;;;2.72;100.00
9139;BME280;4604;48.616;9.548;2022-12-01T06:44:39;97411.63;;;2.82;100.00
9139;BME280;4604;48.616;9.548;2022-12-01T06:47:06;97410.66;;;2.67;100.00
9139;BME280;4604;48.616;9.548;2022-12-01T06:49:33;97414.50;;;2.60;100.00
9139;BME280;4604;48.616;9.548;2022-12-01T06:52:00;97416.78;;;2.66;100.00
9139;BME280;4604;48.616;9.548;2022-12-01T06:54:26;97412.56;;;2.63;100.00
9139;BME280;4604;48.616;9.548;2022-12-01T06:56:55;97415.47;;;2.74;100.00
9139;BME280;4604;48.616;9.548;2022-12-01T06:59:23;97411.19;;;2.73;100.00
9139;BME280;4604;48.616;9.548;2022-12-01T07:01:50;97415.25;;;2.79;100.00
9139;BME280;4604;48.616;9.548;2022-12-01T07:04:17;97409.31;;;2.75;100.00
9139;BME280;4604;48.616;9.548;2022-12-01T07:06:43;97414.34;;;2.63;100.00
9139;BME280;4604;48.616;9.548;2022-12-01T07:09:10;97414.13;;;2.50;100.00
9139;BME280;4604;48.616;9.548;2022-12-01T07:11:37;97413.19;;;2.68;100.00
9139;BME280;4604;48.616;9.548;2022-12-01T07:14:05;97418.69;;;2.79;100.00
9139;BME280;4604;48.616;9.548;2022-12-01T07:16:32;97411.66;;;2.64;100.00
9139;BME280;4604;48.616;9.548;2022-12-01T07:18:58;97421.47;;;2.59;100.00
9139;BME280;4604;48.616;9.548;2022-12-01T07:21:25;97424.44;;;2.86;100.00
9139;BME280;4604;48.616;9.548;2022-12-01T07:23:53;97415.88;;;2.67;100.00
9139;BME280;4604;48.616;9.548;2022-12-01T07:26:20;97417.09;;;2.60;100.00
9139;BME280;4604;48.616;9.548;2022-12-01T07:28:46;97423.97;;;2.61;100.00
9139;BME280;4604;48.616;9.548;2022-12-01T07:31:17;97421.59;;;2.56;100.00
9139;BME280;4604;48.616;9.548;2022-12-01T07:33:44;97419.88;;;2.56;100.00
9139;BME280;4604;48.616;9.548;2022-12-01T07:36:13;97431.81;;;2.78;100.00
9139;BME280;4604;48.616;9.548;2022-12-01T07:38:40;97440.75;;;2.72;100.00
9139;BME280;4604;48.616;9.548;2022-12-01T07:41:09;97438.00;;;2.93;100.00
9139;BME280;4604;48.616;9.548;2022-12-01T07:43:36;97403.06;;;2.62;100.00
9139;BME280;4604;48.616;9.548;2022-12-01T07:46:05;97438.88;;;2.76;100.00
9139;BME280;4604;48.616;9.548;2022-12-01T07:48:35;97435.66;;;2.71;100.00
9139;BME280;4604;48.616;9.548;2022-12-01T07:51:01;97419.63;;;2.44;100.00
9139;BME280;4604;48.616;9.548;2022-12-01T07:53:29;97440.00;;;2.53;100.00
9139;BME280;4604;48.616;9.548;2022-12-01T07:56:03;97437.25;;;2.73;100.00
9139;BME280;4604;48.616;9.548;2022-12-01T07:58:30;97440.38;;;2.80;100.00
9139;BME280;4604;48.616;9.548;2022-12-01T08:01:04;97442.09;;;2.64;100.00
9139;BME280;4604;48.616;9.548;2022-12-01T08:03:31;97440.75;;;2.72;100.00
9139;BME280;4604;48.616;9.548;2022-12-01T08:06:01;97430.50;;;2.69;100.00
9139;BME280;4604;48.616;9.548;2022-12-01T08:08:29;97444.38;;;2.70;100.00
9139;BME280;4604;48.616;9.548;2022-12-01T08:11:00;97444.69;;;2.81;100.00
9139;BME280;4604;48.616;9.548;2022-12-01T08:13:27;97445.44;;;2.66;100.00
9139;BME280;4604;48.616;9.548;2022-12-01T08:15:54;97448.69;;;2.71;100.00
9139;BME280;4604;48.616;9.548;2022-12-01T08:18:22;97448.19;;;2.80;100.00
9139;BME280;4604;48.616;9.548;2022-12-01T08:20:49;97456.00;;;2.80;100.00
9139;BME280;4604;48.616;9.548;2022-12-01T08:23:17;97454.63;;;2.73;100.00
9139;BME280;4604;48.616;9.548;2022-12-01T08:25:44;97453.78;;;2.72;100.00
9139;BME280;4604;48.616;9.548;2022-12-01T08:28:10;97454.63;;;2.73;100.00
9139;BME280;4604;48.616;9.548;2022-12-01T08:30:37;97453.28;;;2.83;100.00
9139;BME280;4604;48.616;9.548;2022-12-01T08:33:04;97456.25;;;2.93;100.00
9139;BME280;4604;48.616;9.548;2022-12-01T08:35:34;97449.91;;;2.81;100.00
9139;BME280;4604;48.616;9.548;2022-12-01T08:38:01;97463.13;;;2.94;100.00
9139;BME280;4604;48.616;9.548;2022-12-01T08:40:29;97435.25;;;2.78;100.00
9139;BME280;4604;48.616;9.548;2022-12-01T08:42:56;97455.88;;;2.83;100.00
9139;BME280;4604;48.616;9.548;2022-12-01T08:45:23;97456.00;;;2.80;100.00
9139;BME280;4604;48.616;9.548;2022-12-01T08:47:52;97443.97;;;2.77;100.00
9139;BME280;4604;48.616;9.548;2022-12-01T08:50:19;97455.09;;;2.98;100.00
9139;BME280;4604;48.616;9.548;2022-12-01T08:52:45;97458.75;;;2.94;100.00
9139;BME280;4604;48.616;9.548;2022-12-01T08:55:12;97458.09;;;2.91;100.00
9139;BME280;4604;48.616;9.548;2022-12-01T08:57:40;97455.97;;;2.97;100.00
9139;BME280;4604;48.616;9.548;2022-12-01T09:00:08;97464.50;;;3.01;100.00
9139;BME280;4604;48.616;9.548;2022-12-01T09:02:34;97459.47;;;2.98;100.00
9139;BME280;4604;48.616;9.548;2022-12-01T09:05:02;97464.56;;;2.99;100.00
9139;BME280;4604;48.616;9.548;2022-12-01T09:07:29;97472.03;;;2.90;100.00
9139;BME280;4604;48.616;9.548;2022-12-01T09:09:57;97474.72;;;2.88;100.00
9139;BME280;4604;48.616;9.548;2022-12-01T09:12:24;97470.69;;;3.16;100.00
9139;BME280;4604;48.616;9.548;2022-12-01T09:14:52;97461.19;;;2.97;100.00
9139;BME280;4604;48.616;9.548;2022-12-01T09:17:19;97471.22;;;3.22;100.00
9139;BME280;4604;48.616;9.548;2022-12-01T09:19:46;97460.22;;;3.00;100.00
9139;BME280;4604;48.616;9.548;2022-12-01T09:22:12;97466.19;;;2.85;100.00
9139;BME280;4604;48.616;9.548;2022-12-01T09:24:39;97471.63;;;2.97;100.00
9139;BME280;4604;48.616;9.548;2022-12-01T09:27:06;97469.78;;;2.99;100.00
9139;BME280;4604;48.616;9.548;2022-12-01T09:29:33;97474.34;;;2.96;100.00
9139;BME280;4604;48.616;9.548;2022-12-01T09:32:01;97476.31;;;3.08;100.00
9139;BME280;4604;48.616;9.548;2022-12-01T09:34:28;97478.38;;;3.02;100.00
9139;BME280;4604;48.616;9.548;2022-12-01T09:36:55;97470.03;;;3.12;100.00
9139;BME280;4604;48.616;9.548;2022-12-01T09:39:23;97439.53;;;2.79;100.00
9139;BME280;4604;48.616;9.548;2022-12-01T09:41:53;97466.88;;;3.06;100.00
9139;BME280;4604;48.616;9.548;2022-12-01T09:44:31;97464.94;;;3.09;100.00
9139;BME280;4604;48.616;9.548;2022-12-01T09:47:07;97472.47;;;3.15;100.00
9139;BME280;4604;48.616;9.548;2022-12-01T09:49:43;97466.78;;;3.07;100.00
9139;BME280;4604;48.616;9.548;2022-12-01T09:52:14;97461.25;;;3.13;100.00
9139;BME280;4604;48.616;9.548;2022-12-01T09:54:41;97458.72;;;3.12;100.00
9139;BME280;4604;48.616;9.548;2022-12-01T09:57:14;97455.75;;;3.02;100.00
9139;BME280;4604;48.616;9.548;2022-12-01T09:59:43;97467.78;;;3.22;100.00
9139;BME280;4604;48.616;9.548;2022-12-01T10:02:23;97461.03;;;3.18;100.00
9139;BME280;4604;48.616;9.548;2022-12-01T10:04:54;97452.59;;;3.13;100.00
9139;BME280;4604;48.616;9.548;2022-12-01T10:07:24;97454.56;;;3.25;100.00
9139;BME280;4604;48.616;9.548;2022-12-01T10:09:56;97454.56;;;3.25;100.00
9139;BME280;4604;48.616;9.548;2022-12-01T10:12:24;97435.91;;;3.33;100.00
9139;BME280;4604;48.616;9.548;2022-12-01T10:14:57;97445.03;;;3.24;100.00
9139;BME280;4604;48.616;9.548;2022-12-01T10:17:32;97443.56;;;3.36;100.00
9139;BME280;4604;48.616;9.548;2022-12-01T10:20:05;97440.16;;;3.18;100.00
9139;BME280;4604;48.616;9.548;2022-12-01T10:22:48;97431.81;;;3.11;100.00
9139;BME280;4604;48.616;9.548;2022-12-01T10:25:21;97397.91;;;2.95;100.00
9139;BME280;4604;48.616;9.548;2022-12-01T10:28:03;97430.16;;;3.26;100.00
9139;BME280;4604;48.616;9.548;2022-12-01T10:30:35;97415.09;;;3.15;100.00
9139;BME280;4604;48.616;9.548;2022-12-01T10:33:14;97427.47;;;3.28;100.00
9139;BME280;4604;48.616;9.548;2022-12-01T10:35:43;97422.03;;;3.32;100.00
9139;BME280;4604;48.616;9.548;2022-12-01T10:38:12;97424.78;;;3.29;100.00
9139;BME280;4604;48.616;9.548;2022-12-01T10:40:41;97425.69;;;3.28;100.00
9139;BME280;4604;48.616;9.548;2022-12-01T10:43:09;97412.06;;;3.23;100.00
9139;BME280;4604;48.616;9.548;2022-12-01T10:45:39;97419.00;;;3.40;100.00
9139;BME280;4604;48.616;9.548;2022-12-01T10:48:11;97420.16;;;3.50;100.00
9139;BME280;4604;48.616;9.548;2022-12-01T10:50:39;97420.84;;;3.38;100.00
9139;BME280;4604;48.616;9.548;2022-12-01T10:53:24;97420.06;;;3.36;100.00
9139;BME280;4604;48.616;9.548;2022-12-01T10:55:58;97414.59;;;3.40;100.00
9139;BME280;4604;48.616;9.548;2022-12-01T10:58:25;97402.22;;;3.28;100.00
9139;BME280;4604;48.616;9.548;2022-12-01T11:00:55;97413.53;;;3.45;100.00
9139;BME280;4604;48.616;9.548;2022-12-01T11:03:26;97416.63;;;3.35;100.00
9139;BME280;4604;48.616;9.548;2022-12-01T11:05:55;97415.63;;;3.22;100.00
9139;BME280;4604;48.616;9.548;2022-12-01T11:08:33;97411.91;;;3.26;100.00
9139;BME280;4604;48.616;9.548;2022-12-01T11:11:02;97409.47;;;3.23;100.00
9139;BME280;4604;48.616;9.548;2022-12-01T11:13:30;97404.47;;;3.18;100.00
9139;BME280;4604;48.616;9.548;2022-12-01T11:16:02;97407.78;;;3.22;100.00
9139;BME280;4604;48.616;9.548;2022-12-01T11:18:31;97399.44;;;3.15;100.00
9139;BME280;4604;48.616;9.548;2022-12-01T11:21:07;97387.47;;;3.11;100.00
9139;BME280;4604;48.616;9.548;2022-12-01T11:23:36;97402.81;;;3.17;100.00
9139;BME280;4604;48.616;9.548;2022-12-01T11:26:11;97389.91;;;3.14;100.00
9139;BME280;4604;48.616;9.548;2022-12-01T11:28:42;97394.41;;;3.12;100.00
9139;BME280;4604;48.616;9.548;2022-12-01T11:31:17;97395.41;;;3.26;100.00
9139;BME280;4604;48.616;9.548;2022-12-01T11:33:49;97391.78;;;3.28;100.00
9139;BME280;4604;48.616;9.548;2022-12-01T11:36:35;97398.78;;;3.28;100.00
9139;BME280;4604;48.616;9.548;2022-12-01T11:39:03;97381.09;;;3.17;100.00
9139;BME280;4604;48.616;9.548;2022-12-01T11:41:36;97392.03;;;3.24;100.00
9139;BME280;4604;48.616;9.548;2022-12-01T11:44:06;97393.31;;;3.32;100.00
9139;BME280;4604;48.616;9.548;2022-12-01T11:46:34;97389.09;;;3.46;100.00
9139;BME280;4604;48.616;9.548;2022-12-01T11:49:03;97387.34;;;3.46;100.00
9139;BME280;4604;48.616;9.548;2022-12-01T11:51:32;97374.81;;;3.37;100.00
9139;BME280;4604;48.616;9.548;2022-12-01T11:54:12;97387.50;;;3.43;100.00
9139;BME280;4604;48.616;9.548;2022-12-01T11:56:41;97377.34;;;3.54;100.00
9139;BME280;4604;48.616;9.548;2022-12-01T11:59:12;97387.94;;;3.51;100.00
9139;BME280;4604;48.616;9.548;2022-12-01T12:02:03;97386.44;;;3.47;100.00
9139;BME280;4604;48.616;9.548;2022-12-01T12:04:48;97383.63;;;3.50;100.00
9139;BME280;4604;48.616;9.548;2022-12-01T12:07:25;97364.38;;;3.37;100.00
9139;BME280;4604;48.616;9.548;2022-12-01T12:10:06;97380.28;;;3.48;100.00
9139;BME280;4604;48.616;9.548;2022-12-01T12:12:48;97384.16;;;3.57;100.00
9139;BME280;4604;48.616;9.548;2022-12-01T12:15:26;97376.56;;;3.68;100.00
9139;BME280;4604;48.616;9.548;2022-12-01T12:18:27;97376.22;;;3.74;100.00
9139;BME280;4604;48.616;9.548;2022-12-01T12:21:09;97370.81;;;3.77;100.00
9139;BME280;4604;48.616;9.548;2022-12-01T12:23:58;97359.38;;;3.80;100.00
9139;BME280;4604;48.616;9.548;2022-12-01T12:26:27;97369.72;;;3.81;100.00
9139;BME280;4604;48.616;9.548;2022-12-01T12:29:20;97368.84;;;3.97;100.00
9139;BME280;4604;48.616;9.548;2022-12-01T12:31:59;97365.84;;;3.89;100.00
9139;BME280;4604;48.616;9.548;2022-12-01T12:34:39;97364.06;;;3.89;100.00
9139;BME280;4604;48.616;9.548;2022-12-01T12:37:17;97363.81;;;3.78;100.00
9139;BME280;4604;48.616;9.548;2022-12-01T12:39:57;97352.66;;;3.76;100.00
9139;BME280;4604;48.616;9.548;2022-12-01T12:42:37;97353.38;;;3.78;100.00
9139;BME280;4604;48.616;9.548;2022-12-01T12:45:14;97364.44;;;3.83;100.00
9139;BME280;4604;48.616;9.548;2022-12-01T12:47:53;97358.19;;;3.85;100.00
9139;BME280;4604;48.616;9.548;2022-12-01T12:50:30;97353.22;;;3.81;100.00
9139;BME280;4604;48.616;9.548;2022-12-01T12:53:07;97358.94;;;3.88;100.00
9139;BME280;4604;48.616;9.548;2022-12-01T12:55:40;97354.00;;;3.83;100.00
9139;BME280;4604;48.616;9.548;2022-12-01T12:58:13;97358.03;;;3.89;100.00
9139;BME280;4604;48.616;9.548;2022-12-01T13:00:45;97352.28;;;3.98;100.00
9139;BME280;4604;48.616;9.548;2022-12-01T13:03:18;97350.19;;;3.89;100.00
9139;BME280;4604;48.616;9.548;2022-12-01T13:05:49;97330.41;;;3.84;100.00
9139;BME280;4604;48.616;9.548;2022-12-01T13:08:22;97353.63;;;3.89;100.00
9139;BME280;4604;48.616;9.548;2022-12-01T13:10:53;97350.38;;;3.85;100.00
9139;BME280;4604;48.616;9.548;2022-12-01T13:13:26;97348.00;;;3.81;100.00
9139;BME280;4604;48.616;9.548;2022-12-01T13:15:56;97345.47;;;3.79;100.00
9139;BME280;4604;48.616;9.548;2022-12-01T13:18:27;97351.38;;;3.83;100.00
9139;BME280;4604;48.616;9.548;2022-12-01T13:21:00;97346.06;;;3.84;100.00
9139;BME280;4604;48.616;9.548;2022-12-01T13:23:29;97341.53;;;3.88;100.00
9139;BME280;4604;48.616;9.548;2022-12-01T13:25:59;97342.88;;;3.79;100.00
9139;BME280;4604;48.616;9.548;2022-12-01T13:28:34;97346.47;;;3.93;100.00
9139;BME280;4604;48.616;9.548;2022-12-01T13:31:05;97345.97;;;3.86;100.00
9139;BME280;4604;48.616;9.548;2022-12-01T13:33:32;97340.31;;;3.94;100.00
9139;BME280;4604;48.616;9.548;2022-12-01T13:36:08;97341.53;;;3.88;100.00
9139;BME280;4604;48.616;9.548;2022-12-01T13:38:37;97337.66;;;3.79;100.00
9139;BME280;4604;48.616;9.548;2022-12-01T13:41:20;97348.94;;;3.80;100.00